sensor_id;sensor_type;location;lat;lon;timestamp;P1;durP1;ratioP1;P2;durP2;ratioP2
9904;SDS011;4991;43.566;27.820;2023-09-12T00:02:20;3.90;;;2.83;;
9904;SDS011;4991;43.566;27.820;2023-09-12T00:04:46;5.23;;;3.60;;
9904;SDS011;4991;43.566;27.820;2023-09-12T00:07:12;3.83;;;3.23;;
9904;SDS011;4991;43.566;27.820;2023-09-12T00:09:39;6.30;;;3.20;;
9904;SDS011;4991;43.566;27.820;2023-09-12T00:12:04;5.13;;;4.07;;
9904;SDS011;4991;43.566;27.820;2023-09-12T00:14:30;4.00;;;3.60;;
9904;SDS011;4991;43.566;27.820;2023-09-12T00:16:56;7.20;;;4.03;;
9904;SDS011;4991;43.566;27.820;2023-09-12T00:19:21;4.33;;;3.60;;
9904;SDS011;4991;43.566;27.820;2023-09-12T00:21:47;4.87;;;3.80;;
9904;SDS011;4991;43.566;27.820;2023-09-12T00:24:13;5.37;;;3.77;;
9904;SDS011;4991;43.566;27.820;2023-09-12T00:26:38;4.90;;;3.70;;
9904;SDS011;4991;43.566;27.820;2023-09-12T00:29:04;4.50;;;3.87;;
9904;SDS011;4991;43.566;27.820;2023-09-12T00:31:29;6.27;;;3.17;;
9904;SDS011;4991;43.566;27.820;2023-09-12T00:33:55;3.87;;;3.50;;
9904;SDS011;4991;43.566;27.820;2023-09-12T00:36:21;4.80;;;4.30;;
9904;SDS011;4991;43.566;27.820;2023-09-12T00:38:46;6.60;;;4.10;;
9904;SDS011;4991;43.566;27.820;2023-09-12T00:41:12;4.40;;;4.00;;
9904;SDS011;4991;43.566;27.820;2023-09-12T00:43:38;7.03;;;4.33;;
9904;SDS011;4991;43.566;27.820;2023-09-12T00:46:04;5.13;;;4.60;;
9904;SDS011;4991;43.566;27.820;2023-09-12T00:48:29;6.03;;;4.27;;
9904;SDS011;4991;43.566;27.820;2023-09-12T00:50:56;8.47;;;4.43;;
9904;SDS011;4991;43.566;27.820;2023-09-12T00:53:22;5.93;;;4.43;;
9904;SDS011;4991;43.566;27.820;2023-09-12T00:55:51;5.30;;;4.57;;
9904;SDS011;4991;43.566;27.820;2023-09-12T00:58:23;5.13;;;4.63;;
9904;SDS011;4991;43.566;27.820;2023-09-12T01:00:55;9.00;;;5.03;;
9904;SDS011;4991;43.566;27.820;2023-09-12T01:03:21;5.20;;;4.70;;
9904;SDS011;4991;43.566;27.820;2023-09-12T01:05:47;5.97;;;4.80;;
9904;SDS011;4991;43.566;27.820;2023-09-12T01:08:13;6.20;;;4.93;;
9904;SDS011;4991;43.566;27.820;2023-09-12T01:10:40;5.70;;;4.60;;
9904;SDS011;4991;43.566;27.820;2023-09-12T01:13:11;9.17;;;4.57;;
9904;SDS011;4991;43.566;27.820;2023-09-12T01:15:39;6.43;;;4.77;;
9904;SDS011;4991;43.566;27.820;2023-09-12T01:18:06;6.53;;;4.70;;
9904;SDS011;4991;43.566;27.820;2023-09-12T01:20:33;5.53;;;4.73;;
9904;SDS011;4991;43.566;27.820;2023-09-12T01:23:21;5.63;;;4.57;;
9904;SDS011;4991;43.566;27.820;2023-09-12T01:28:23;7.97;;;5.23;;
9904;SDS011;4991;43.566;27.820;2023-09-12T01:30:52;7.70;;;4.57;;
9904;SDS011;4991;43.566;27.820;2023-09-12T01:33:19;4.93;;;4.53;;
9904;SDS011;4991;43.566;27.820;2023-09-12T01:35:45;9.53;;;4.57;;
9904;SDS011;4991;43.566;27.820;2023-09-12T01:38:12;5.93;;;5.00;;
9904;SDS011;4991;43.566;27.820;2023-09-12T01:40:42;6.23;;;5.13;;
9904;SDS011;4991;43.566;27.820;2023-09-12T01:43:11;5.30;;;4.80;;
9904;SDS011;4991;43.566;27.820;2023-09-12T01:45:38;9.23;;;5.00;;
9904;SDS011;4991;43.566;27.820;2023-09-12T01:48:04;7.27;;;5.13;;
9904;SDS011;4991;43.566;27.820;2023-09-12T01:50:31;7.27;;;5.50;;
9904;SDS011;4991;43.566;27.820;2023-09-12T01:52:58;6.13;;;5.10;;
9904;SDS011;4991;43.566;27.820;2023-09-12T01:55:24;9.07;;;5.20;;
9904;SDS011;4991;43.566;27.820;2023-09-12T01:57:51;7.77;;;4.80;;
9904;SDS011;4991;43.566;27.820;2023-09-12T02:00:20;6.90;;;4.80;;
9904;SDS011;4991;43.566;27.820;2023-09-12T02:02:47;5.93;;;4.73;;
9904;SDS011;4991;43.566;27.820;2023-09-12T02:05:16;6.80;;;4.83;;
9904;SDS011;4991;43.566;27.820;2023-09-12T02:07:44;5.57;;;4.40;;
9904;SDS011;4991;43.566;27.820;2023-09-12T02:10:10;6.37;;;4.67;;
9904;SDS011;4991;43.566;27.820;2023-09-12T02:12:35;7.03;;;4.33;;
9904;SDS011;4991;43.566;27.820;2023-09-12T02:15:01;6.67;;;4.87;;
9904;SDS011;4991;43.566;27.820;2023-09-12T02:17:27;4.77;;;4.30;;
9904;SDS011;4991;43.566;27.820;2023-09-12T02:19:53;4.90;;;4.50;;
9904;SDS011;4991;43.566;27.820;2023-09-12T02:22:18;6.23;;;4.97;;
9904;SDS011;4991;43.566;27.820;2023-09-12T02:24:44;5.57;;;4.07;;
9904;SDS011;4991;43.566;27.820;2023-09-12T02:27:09;9.47;;;4.43;;
9904;SDS011;4991;43.566;27.820;2023-09-12T02:29:36;6.17;;;4.53;;
9904;SDS011;4991;43.566;27.820;2023-09-12T02:32:03;6.20;;;5.10;;
9904;SDS011;4991;43.566;27.820;2023-09-12T02:34:29;6.20;;;4.40;;
9904;SDS011;4991;43.566;27.820;2023-09-12T02:36:54;7.47;;;6.17;;
9904;SDS011;4991;43.566;27.820;2023-09-12T02:39:20;7.67;;;5.17;;
9904;SDS011;4991;43.566;27.820;2023-09-12T02:41:46;7.10;;;4.70;;
9904;SDS011;4991;43.566;27.820;2023-09-12T02:44:11;6.90;;;5.20;;
9904;SDS011;4991;43.566;27.820;2023-09-12T02:46:37;6.40;;;4.77;;
9904;SDS011;4991;43.566;27.820;2023-09-12T02:49:03;8.47;;;4.77;;
9904;SDS011;4991;43.566;27.820;2023-09-12T02:51:28;5.43;;;4.70;;
9904;SDS011;4991;43.566;27.820;2023-09-12T02:53:54;5.80;;;5.27;;
9904;SDS011;4991;43.566;27.820;2023-09-12T02:56:20;6.87;;;5.33;;
9904;SDS011;4991;43.566;27.820;2023-09-12T02:58:48;5.90;;;4.90;;
9904;SDS011;4991;43.566;27.820;2023-09-12T03:01:15;6.93;;;4.97;;
9904;SDS011;4991;43.566;27.820;2023-09-12T03:03:47;5.77;;;4.90;;
9904;SDS011;4991;43.566;27.820;2023-09-12T03:06:16;6.67;;;5.57;;
9904;SDS011;4991;43.566;27.820;2023-09-12T03:08:43;8.50;;;6.20;;
9904;SDS011;4991;43.566;27.820;2023-09-12T03:11:09;8.47;;;5.33;;
9904;SDS011;4991;43.566;27.820;2023-09-12T03:13:39;5.73;;;5.13;;
9904;SDS011;4991;43.566;27.820;2023-09-12T03:16:09;8.40;;;5.67;;
9904;SDS011;4991;43.566;27.820;2023-09-12T03:18:36;6.53;;;5.57;;
9904;SDS011;4991;43.566;27.820;2023-09-12T03:21:01;7.40;;;5.80;;
9904;SDS011;4991;43.566;27.820;2023-09-12T03:23:27;6.63;;;5.87;;
9904;SDS011;4991;43.566;27.820;2023-09-12T03:25:53;10.27;;;6.53;;
9904;SDS011;4991;43.566;27.820;2023-09-12T03:28:19;8.43;;;6.37;;
9904;SDS011;4991;43.566;27.820;2023-09-12T03:30:44;12.33;;;7.00;;
9904;SDS011;4991;43.566;27.820;2023-09-12T03:33:10;7.33;;;5.90;;
9904;SDS011;4991;43.566;27.820;2023-09-12T03:35:36;9.03;;;6.23;;
9904;SDS011;4991;43.566;27.820;2023-09-12T03:38:01;19.27;;;11.90;;
9904;SDS011;4991;43.566;27.820;2023-09-12T03:40:30;11.37;;;6.73;;
9904;SDS011;4991;43.566;27.820;2023-09-12T03:42:56;9.90;;;7.10;;
9904;SDS011;4991;43.566;27.820;2023-09-12T03:45:22;11.00;;;6.87;;
9904;SDS011;4991;43.566;27.820;2023-09-12T03:47:48;10.20;;;8.37;;
9904;SDS011;4991;43.566;27.820;2023-09-12T03:50:14;10.40;;;7.67;;
9904;SDS011;4991;43.566;27.820;2023-09-12T03:52:40;13.90;;;8.27;;
9904;SDS011;4991;43.566;27.820;2023-09-12T03:55:05;13.70;;;8.30;;
9904;SDS011;4991;43.566;27.820;2023-09-12T03:57:31;15.37;;;8.33;;
9904;SDS011;4991;43.566;27.820;2023-09-12T03:59:57;25.70;;;9.07;;
9904;SDS011;4991;43.566;27.820;2023-09-12T04:02:23;14.73;;;8.10;;
9904;SDS011;4991;43.566;27.820;2023-09-12T04:04:48;9.53;;;8.20;;
9904;SDS011;4991;43.566;27.820;2023-09-12T04:07:14;11.33;;;8.30;;
9904;SDS011;4991;43.566;27.820;2023-09-12T04:09:40;13.00;;;8.77;;
9904;SDS011;4991;43.566;27.820;2023-09-12T04:12:06;15.73;;;9.93;;
9904;SDS011;4991;43.566;27.820;2023-09-12T04:14:33;12.00;;;8.43;;
9904;SDS011;4991;43.566;27.820;2023-09-12T04:16:59;14.23;;;9.90;;
9904;SDS011;4991;43.566;27.820;2023-09-12T04:19:25;14.73;;;8.93;;
9904;SDS011;4991;43.566;27.820;2023-09-12T04:21:50;14.30;;;8.83;;
9904;SDS011;4991;43.566;27.820;2023-09-12T04:24:16;14.23;;;7.97;;
9904;SDS011;4991;43.566;27.820;2023-09-12T04:26:43;11.07;;;7.97;;
9904;SDS011;4991;43.566;27.820;2023-09-12T04:29:09;11.33;;;9.37;;
9904;SDS011;4991;43.566;27.820;2023-09-12T04:31:36;14.93;;;8.60;;
9904;SDS011;4991;43.566;27.820;2023-09-12T04:34:01;9.93;;;8.13;;
9904;SDS011;4991;43.566;27.820;2023-09-12T04:36:27;17.00;;;10.07;;
9904;SDS011;4991;43.566;27.820;2023-09-12T04:38:53;14.67;;;8.80;;
9904;SDS011;4991;43.566;27.820;2023-09-12T04:41:19;19.57;;;9.63;;
9904;SDS011;4991;43.566;27.820;2023-09-12T04:43:44;21.37;;;10.23;;
9904;SDS011;4991;43.566;27.820;2023-09-12T04:46:11;24.40;;;11.77;;
9904;SDS011;4991;43.566;27.820;2023-09-12T04:48:37;23.73;;;10.20;;
9904;SDS011;4991;43.566;27.820;2023-09-12T04:51:03;27.27;;;11.20;;
9904;SDS011;4991;43.566;27.820;2023-09-12T04:53:29;26.20;;;9.50;;
9904;SDS011;4991;43.566;27.820;2023-09-12T04:56:02;21.60;;;9.17;;
9904;SDS011;4991;43.566;27.820;2023-09-12T04:58:28;38.97;;;10.87;;
9904;SDS011;4991;43.566;27.820;2023-09-12T05:00:54;32.10;;;10.27;;
9904;SDS011;4991;43.566;27.820;2023-09-12T05:03:21;26.90;;;9.33;;
9904;SDS011;4991;43.566;27.820;2023-09-12T05:05:47;21.07;;;8.93;;
9904;SDS011;4991;43.566;27.820;2023-09-12T05:08:13;25.40;;;15.23;;
9904;SDS011;4991;43.566;27.820;2023-09-12T05:10:39;23.43;;;11.07;;
9904;SDS011;4991;43.566;27.820;2023-09-12T05:13:05;26.27;;;11.23;;
9904;SDS011;4991;43.566;27.820;2023-09-12T05:15:31;20.03;;;10.40;;
9904;SDS011;4991;43.566;27.820;2023-09-12T05:17:57;19.67;;;9.87;;
9904;SDS011;4991;43.566;27.820;2023-09-12T05:20:22;15.93;;;8.73;;
9904;SDS011;4991;43.566;27.820;2023-09-12T05:22:48;15.47;;;7.77;;
9904;SDS011;4991;43.566;27.820;2023-09-12T05:25:13;20.37;;;7.90;;
9904;SDS011;4991;43.566;27.820;2023-09-12T05:27:39;14.73;;;8.27;;
9904;SDS011;4991;43.566;27.820;2023-09-12T05:30:05;15.73;;;8.07;;
9904;SDS011;4991;43.566;27.820;2023-09-12T05:32:31;36.47;;;10.00;;
9904;SDS011;4991;43.566;27.820;2023-09-12T05:34:56;11.47;;;7.80;;
9904;SDS011;4991;43.566;27.820;2023-09-12T05:37:22;18.87;;;7.93;;
9904;SDS011;4991;43.566;27.820;2023-09-12T05:39:48;20.70;;;9.63;;
9904;SDS011;4991;43.566;27.820;2023-09-12T05:42:13;18.83;;;8.53;;
9904;SDS011;4991;43.566;27.820;2023-09-12T05:44:45;20.47;;;8.50;;
9904;SDS011;4991;43.566;27.820;2023-09-12T05:47:11;14.30;;;7.33;;
9904;SDS011;4991;43.566;27.820;2023-09-12T05:49:37;13.60;;;8.43;;
9904;SDS011;4991;43.566;27.820;2023-09-12T05:52:03;18.77;;;7.90;;
9904;SDS011;4991;43.566;27.820;2023-09-12T05:54:28;17.23;;;6.97;;
9904;SDS011;4991;43.566;27.820;2023-09-12T05:56:54;13.67;;;6.33;;
9904;SDS011;4991;43.566;27.820;2023-09-12T05:59:19;19.70;;;7.20;;
9904;SDS011;4991;43.566;27.820;2023-09-12T06:01:45;15.33;;;8.07;;
9904;SDS011;4991;43.566;27.820;2023-09-12T06:04:11;10.53;;;6.47;;
9904;SDS011;4991;43.566;27.820;2023-09-12T06:06:36;8.47;;;6.90;;
9904;SDS011;4991;43.566;27.820;2023-09-12T06:09:02;23.40;;;10.30;;
9904;SDS011;4991;43.566;27.820;2023-09-12T06:11:28;15.73;;;8.07;;
9904;SDS011;4991;43.566;27.820;2023-09-12T06:13:54;14.33;;;6.50;;
9904;SDS011;4991;43.566;27.820;2023-09-12T06:16:20;13.37;;;7.03;;
9904;SDS011;4991;43.566;27.820;2023-09-12T06:18:46;11.57;;;7.40;;
9904;SDS011;4991;43.566;27.820;2023-09-12T06:21:13;9.90;;;6.00;;
9904;SDS011;4991;43.566;27.820;2023-09-12T06:23:39;9.10;;;6.20;;
9904;SDS011;4991;43.566;27.820;2023-09-12T06:26:05;13.17;;;6.67;;
9904;SDS011;4991;43.566;27.820;2023-09-12T06:28:30;6.23;;;4.67;;
9904;SDS011;4991;43.566;27.820;2023-09-12T06:30:57;10.90;;;5.40;;
9904;SDS011;4991;43.566;27.820;2023-09-12T06:33:24;7.30;;;4.00;;
9904;SDS011;4991;43.566;27.820;2023-09-12T06:35:51;8.57;;;4.80;;
9904;SDS011;4991;43.566;27.820;2023-09-12T06:38:18;7.37;;;4.10;;
9904;SDS011;4991;43.566;27.820;2023-09-12T06:40:44;7.23;;;4.57;;
9904;SDS011;4991;43.566;27.820;2023-09-12T06:43:12;4.50;;;4.10;;
9904;SDS011;4991;43.566;27.820;2023-09-12T06:45:40;13.20;;;5.53;;
9904;SDS011;4991;43.566;27.820;2023-09-12T06:48:06;9.47;;;4.50;;
9904;SDS011;4991;43.566;27.820;2023-09-12T06:50:31;10.03;;;4.50;;
9904;SDS011;4991;43.566;27.820;2023-09-12T06:52:57;7.63;;;3.90;;
9904;SDS011;4991;43.566;27.820;2023-09-12T06:55:23;7.03;;;4.77;;
9904;SDS011;4991;43.566;27.820;2023-09-12T06:57:49;6.07;;;4.03;;
9904;SDS011;4991;43.566;27.820;2023-09-12T07:00:15;6.17;;;3.73;;
9904;SDS011;4991;43.566;27.820;2023-09-12T07:02:43;8.03;;;4.30;;
9904;SDS011;4991;43.566;27.820;2023-09-12T07:05:09;6.07;;;4.40;;
9904;SDS011;4991;43.566;27.820;2023-09-12T07:07:36;6.10;;;3.90;;
9904;SDS011;4991;43.566;27.820;2023-09-12T07:10:01;4.40;;;3.60;;
9904;SDS011;4991;43.566;27.820;2023-09-12T07:12:28;5.37;;;3.77;;
9904;SDS011;4991;43.566;27.820;2023-09-12T07:14:54;6.33;;;4.00;;
9904;SDS011;4991;43.566;27.820;2023-09-12T07:17:21;6.47;;;3.60;;
9904;SDS011;4991;43.566;27.820;2023-09-12T07:19:47;5.00;;;3.27;;
9904;SDS011;4991;43.566;27.820;2023-09-12T07:22:14;7.23;;;3.60;;
9904;SDS011;4991;43.566;27.820;2023-09-12T07:24:40;3.30;;;3.00;;
9904;SDS011;4991;43.566;27.820;2023-09-12T07:27:05;3.40;;;2.87;;
9904;SDS011;4991;43.566;27.820;2023-09-12T07:29:31;4.43;;;3.27;;
9904;SDS011;4991;43.566;27.820;2023-09-12T07:32:00;5.90;;;3.57;;
9904;SDS011;4991;43.566;27.820;2023-09-12T07:34:27;6.13;;;3.40;;
9904;SDS011;4991;43.566;27.820;2023-09-12T07:36:55;4.53;;;3.10;;
9904;SDS011;4991;43.566;27.820;2023-09-12T07:39:22;4.53;;;2.93;;
9904;SDS011;4991;43.566;27.820;2023-09-12T07:41:48;6.53;;;3.47;;
9904;SDS011;4991;43.566;27.820;2023-09-12T07:44:14;8.57;;;3.77;;
9904;SDS011;4991;43.566;27.820;2023-09-12T07:46:41;3.10;;;2.80;;
9904;SDS011;4991;43.566;27.820;2023-09-12T07:49:08;5.20;;;3.43;;
9904;SDS011;4991;43.566;27.820;2023-09-12T07:51:36;5.40;;;3.27;;
9904;SDS011;4991;43.566;27.820;2023-09-12T07:54:02;4.70;;;3.57;;
9904;SDS011;4991;43.566;27.820;2023-09-12T07:56:29;6.17;;;3.40;;
9904;SDS011;4991;43.566;27.820;2023-09-12T07:58:56;3.90;;;2.77;;
9904;SDS011;4991;43.566;27.820;2023-09-12T08:01:22;4.20;;;3.00;;
9904;SDS011;4991;43.566;27.820;2023-09-12T08:03:48;6.73;;;3.10;;
9904;SDS011;4991;43.566;27.820;2023-09-12T08:06:14;4.97;;;3.80;;
9904;SDS011;4991;43.566;27.820;2023-09-12T08:08:40;3.55;;;2.97;;
9904;SDS011;4991;43.566;27.820;2023-09-12T08:11:05;5.77;;;4.07;;
9904;SDS011;4991;43.566;27.820;2023-09-12T08:13:32;5.38;;;4.10;;
9904;SDS011;4991;43.566;27.820;2023-09-12T08:15:59;4.88;;;3.25;;
9904;SDS011;4991;43.566;27.820;2023-09-12T08:18:26;5.30;;;3.10;;
9904;SDS011;4991;43.566;27.820;2023-09-12T08:20:54;6.32;;;3.30;;
9904;SDS011;4991;43.566;27.820;2023-09-12T08:23:19;4.43;;;2.70;;
9904;SDS011;4991;43.566;27.820;2023-09-12T08:25:46;7.30;;;3.22;;
9904;SDS011;4991;43.566;27.820;2023-09-12T08:28:13;6.85;;;3.10;;
9904;SDS011;4991;43.566;27.820;2023-09-12T08:30:38;6.10;;;3.42;;
9904;SDS011;4991;43.566;27.820;2023-09-12T08:33:04;8.43;;;3.45;;
9904;SDS011;4991;43.566;27.820;2023-09-12T08:35:32;3.75;;;2.60;;
9904;SDS011;4991;43.566;27.820;2023-09-12T08:37:58;4.50;;;2.70;;
9904;SDS011;4991;43.566;27.820;2023-09-12T08:40:24;4.50;;;2.72;;
9904;SDS011;4991;43.566;27.820;2023-09-12T08:42:49;3.15;;;2.75;;
9904;SDS011;4991;43.566;27.820;2023-09-12T08:45:18;3.35;;;2.45;;
9904;SDS011;4991;43.566;27.820;2023-09-12T08:47:46;3.33;;;2.65;;
9904;SDS011;4991;43.566;27.820;2023-09-12T09:08:52;3.42;;;2.70;;
9904;SDS011;4991;43.566;27.820;2023-09-12T09:11:22;4.18;;;3.20;;
